Lea County Regional Airport
KHOB : now visible

Airfield :











YOU CAN JOIN US ON...

 
LOGIN :

Register | Disclaimer

   EN    FR    IT 

 









Legend :    VFR   Marginal VFR   IFR   Intensive IFR   Very Intensive IFR
Visi :
Ceiling :
>= 8 km
>= 3000ft
5 to 8 km
1000 to 3000 ft
1500m to 5 km
500 to 1000 ft
800 to 1500m
200 to 500 ft
< 800m
< 200 ft
Symbols :   Thunderstorms  Fog  Heavy snow  Heavy precipitations  Wind > 20 kt






- Airport Elevation : 3661 ft


KHOB - Lea County Regional

CURRENT METAR :
  • 161055Z AUTO 05003KT 9SM SCT004 BKN014 10/09 A2985 RMK AO2

EXPIRED METARs :
  • 161035Z AUTO 05005G13KT 5SM BR OVC004 10/10 A2985 RMK AO2
  • 161015Z AUTO 01013KT 1 1/2SM BR OVC004 11/11 A2986 RMK AO2
  • 160955Z AUTO 36015KT 1/2SM FG OVC003 11/11 A2986 RMK AO2
  • 160935Z AUTO 00000KT 1/2SM FG OVC002 11/11 A2983 RMK AO2
  • 160915Z AUTO 15003KT 1/2SM FG OVC002 11/11 A2983 RMK AO2
  • 160855Z AUTO 16003KT 1/2SM FG OVC002 11/11 A2984 RMK AO2
  • 160835Z AUTO 16004KT 1/2SM FG OVC003 11/11 A2983 RMK AO2
  • 160815Z AUTO 00000KT 1/4SM FG OVC003 11/11 A2984 RMK AO2

TAF KHOB
Valid from the 16 at 10:00 until the 17 at 06:00 UTC


161028Z 1610/1706 01011KT 2SM BR OVC004
FM161500 34011KT P6SM BKN150
KZFW FIR / North America



MET'MAP, your aeronautical weather chart ! - Copyright ORBIFLY December 2007 - Disclaimer

ORBIFLY MET'MAP TEAM :

Programming & Development : Alexandra Zaïnal
Concept & original design : Baudouin d'Aumeries
Assistance for programming : Marc-Olivier Méhu
Technical & hardware support : Manuel Goepfert

Contact : metmap@orbifly.com




SOURCES & CREDITS :

   NOAA       Earth
Advisory